New Orleans, Louisiana
Traffic Map
Current Weather Conditions
New Orleans, Louisiana
Clear
Clear
19°
Feels Like: 19°
Wind Chill: 19° Ceiling: Unl
Heat Index: 19° Visibility: 10mi
Dew Point: Wind: 9mph
Humidity: 52% Direction: 50° (NE)
Pressure: 30.29in Gusts: 0mph
Raw Report DataKVSH 211755Z AUTO 05008KT 10SM CLR 19/09 A3029 RMK AO1 10200 20140 57007
Traffic Incident Summary
Active as of:
Severity:
Category:
InformationThere was an issue retrieving the traffic information for this location. Please try a different location or try again shortly.
Advertisements
Track Severe Weather on mobile